createdAt,value
2018-07-06T00:01:25.477Z,81.40
2018-07-06T00:04:05.220Z,81.70
2018-07-06T00:06:44.782Z,82.20
2018-07-06T00:09:25.206Z,82.40
2018-07-06T00:12:04.852Z,82.80
2018-07-06T00:14:44.403Z,82.80
2018-07-06T00:17:24.123Z,82.90
2018-07-06T00:20:03.782Z,83.00
2018-07-06T00:22:43.434Z,83.00
2018-07-06T00:25:23.194Z,83.10
2018-07-06T00:28:03.024Z,83.10
2018-07-06T00:30:42.786Z,83.00
2018-07-06T00:33:22.634Z,82.90
2018-07-06T00:36:02.334Z,83.00
2018-07-06T00:38:41.970Z,83.30
2018-07-06T00:41:21.778Z,83.50
2018-07-06T00:44:01.531Z,83.90
2018-07-06T00:46:41.090Z,84.10
2018-07-06T00:49:20.753Z,84.00
2018-07-06T00:52:00.494Z,84.50
2018-07-06T00:54:40.164Z,84.20
2018-07-06T00:57:19.806Z,84.00
2018-07-06T00:59:59.339Z,84.40
2018-07-06T01:02:39.107Z,84.90
2018-07-06T01:05:18.698Z,84.80
2018-07-06T01:07:58.342Z,84.90
2018-07-06T01:10:37.979Z,84.70
2018-07-06T01:15:51.410Z,85.00
2018-07-06T01:18:31.184Z,85.40
2018-07-06T01:21:10.866Z,84.90
2018-07-06T01:23:50.600Z,85.10
2018-07-06T01:26:30.523Z,85.10
2018-07-06T01:29:10.295Z,85.30
2018-07-06T01:31:49.919Z,85.20
2018-07-06T01:34:29.558Z,85.50
2018-07-06T01:37:09.156Z,85.80
2018-07-06T01:39:48.755Z,86.00
2018-07-06T01:42:28.420Z,86.20
2018-07-06T01:45:08.127Z,86.20
2018-07-06T01:47:47.807Z,86.40
2018-07-06T01:50:27.702Z,86.30
2018-07-06T01:53:07.412Z,86.90
2018-07-06T01:55:47.259Z,86.90
2018-07-06T02:01:00.623Z,86.60
2018-07-06T02:03:40.371Z,87.20
2018-07-06T02:06:20.167Z,87.30
2018-07-06T02:08:59.911Z,87.20
2018-07-06T02:11:39.538Z,87.30
2018-07-06T02:14:19.384Z,87.60
2018-07-06T02:16:59.054Z,87.40
2018-07-06T02:19:38.789Z,87.80
2018-07-06T02:22:18.482Z,88.10
2018-07-06T02:24:58.355Z,87.70
2018-07-06T02:27:38.095Z,87.50
2018-07-06T02:30:17.791Z,88.10
2018-07-06T02:32:57.460Z,88.20
2018-07-06T02:35:37.343Z,87.60
2018-07-06T02:38:16.987Z,87.70
2018-07-06T02:40:56.747Z,87.70
2018-07-06T02:43:36.462Z,88.10
2018-07-06T02:46:16.014Z,88.60
2018-07-06T02:48:55.806Z,88.60
2018-07-06T02:51:35.579Z,88.40
2018-07-06T02:54:15.126Z,87.90
2018-07-06T02:56:54.853Z,87.60
2018-07-06T02:59:34.395Z,87.50
2018-07-06T03:02:14.135Z,88.20
2018-07-06T03:04:53.683Z,87.90
2018-07-06T03:07:33.245Z,88.20
2018-07-06T03:10:12.910Z,88.60
2018-07-06T03:12:52.513Z,88.90
2018-07-06T03:15:32.214Z,88.40
2018-07-06T03:18:12.015Z,88.40
2018-07-06T03:20:51.775Z,88.60
2018-07-06T03:23:31.312Z,89.10
2018-07-06T03:26:11.062Z,88.60
2018-07-06T03:28:50.918Z,88.20
2018-07-06T03:31:30.337Z,88.40
2018-07-06T03:34:09.914Z,88.90
2018-07-06T03:36:49.625Z,89.50
2018-07-06T03:39:29.499Z,90.50
2018-07-06T03:42:09.108Z,90.60
2018-07-06T03:44:48.883Z,91.00
2018-07-06T03:47:28.659Z,91.00
2018-07-06T03:50:08.519Z,90.60
2018-07-06T03:52:48.346Z,90.30
2018-07-06T03:55:28.035Z,91.30
2018-07-06T03:58:07.712Z,90.50
2018-07-06T04:00:47.294Z,90.40
2018-07-06T04:03:27.020Z,90.20
2018-07-06T04:06:06.883Z,90.60
2018-07-06T04:08:46.552Z,90.80
2018-07-06T04:11:26.317Z,90.30
2018-07-06T04:14:05.962Z,90.30
2018-07-06T04:16:45.443Z,90.30
2018-07-06T04:19:25.247Z,90.10
2018-07-06T04:22:05.102Z,89.80
2018-07-06T04:24:44.731Z,89.70
2018-07-06T04:27:24.463Z,90.00
2018-07-06T04:30:04.159Z,90.50
2018-07-06T04:32:43.881Z,90.60
2018-07-06T04:35:23.523Z,90.40
2018-07-06T04:38:03.202Z,90.40
2018-07-06T04:40:42.974Z,90.60
2018-07-06T04:43:22.862Z,90.70
2018-07-06T04:46:02.788Z,90.70
2018-07-06T04:48:42.471Z,90.90
2018-07-06T04:53:55.726Z,91.30
2018-07-06T04:56:35.383Z,91.50
2018-07-06T04:59:15.260Z,91.40
2018-07-06T05:01:54.807Z,91.10
2018-07-06T05:04:34.573Z,91.30
2018-07-06T05:07:14.323Z,91.00
2018-07-06T05:09:53.925Z,91.00
2018-07-06T05:12:33.735Z,91.00
2018-07-06T05:15:13.379Z,90.90
2018-07-06T05:17:53.055Z,90.70
2018-07-06T05:20:32.804Z,90.00
2018-07-06T05:23:12.524Z,89.40
2018-07-06T05:25:52.068Z,89.60
2018-07-06T05:28:31.824Z,89.20
2018-07-06T05:31:11.476Z,88.90
2018-07-06T05:33:51.255Z,87.50
2018-07-06T05:36:30.751Z,86.40
2018-07-06T05:39:10.543Z,85.30
2018-07-06T05:41:50.110Z,84.40
2018-07-06T05:44:29.630Z,83.60
2018-07-06T05:48:12.619Z,83.20
2018-07-06T05:50:52.393Z,82.80
2018-07-06T05:53:31.995Z,82.70
2018-07-06T05:56:11.751Z,82.90
2018-07-06T05:58:51.526Z,83.70
2018-07-06T06:01:31.185Z,83.90
2018-07-06T06:04:10.874Z,84.50
2018-07-06T06:06:50.582Z,84.70
2018-07-06T06:09:18.902Z,84.90
2018-07-06T06:11:47.255Z,85.60
2018-07-06T06:14:15.587Z,85.90
2018-07-06T06:16:43.915Z,85.70
2018-07-06T06:19:12.343Z,86.10
2018-07-06T06:21:40.665Z,85.80
2018-07-06T06:24:09.029Z,86.00
2018-07-06T06:26:37.354Z,85.00
2018-07-06T06:29:05.720Z,85.20
2018-07-06T06:31:34.140Z,84.80
2018-07-06T06:34:03.056Z,85.20
2018-07-06T06:36:32.098Z,85.70
2018-07-06T06:39:00.551Z,85.80
2018-07-06T06:43:56.987Z,85.80
2018-07-06T06:46:25.354Z,85.50
2018-07-06T06:48:53.754Z,85.10
2018-07-06T06:51:22.123Z,85.00
2018-07-06T06:53:50.515Z,84.20
2018-07-06T06:56:18.862Z,84.20
2018-07-06T06:58:47.270Z,84.40
2018-07-06T07:01:15.664Z,83.60
2018-07-06T07:03:44.070Z,82.90
2018-07-06T07:06:12.440Z,83.60
2018-07-06T07:08:40.815Z,83.90
2018-07-06T07:11:09.178Z,83.40
2018-07-06T07:13:37.601Z,82.00
2018-07-06T07:16:05.946Z,81.60
2018-07-06T07:18:34.316Z,81.40
2018-07-06T07:21:02.756Z,82.10
2018-07-06T07:23:31.107Z,81.80
2018-07-06T07:25:59.495Z,82.60
2018-07-06T07:28:27.894Z,81.60
2018-07-06T07:30:56.246Z,80.70
2018-07-06T07:33:24.644Z,78.90
2018-07-06T07:35:53.007Z,78.30
2018-07-06T07:38:21.383Z,77.40
2018-07-06T07:40:49.726Z,75.70
2018-07-06T07:43:18.187Z,75.30
2018-07-06T07:45:46.578Z,74.30
2018-07-06T07:48:14.943Z,74.30
2018-07-06T07:50:54.771Z,73.80
2018-07-06T07:53:34.547Z,74.60
2018-07-06T07:56:02.934Z,74.70
2018-07-06T07:58:31.301Z,74.20
2018-07-06T08:00:59.856Z,73.80
2018-07-06T08:03:28.055Z,73.80
2018-07-06T08:05:56.443Z,73.60
2018-07-06T08:08:24.826Z,72.50
2018-07-06T08:10:53.190Z,73.60
2018-07-06T08:13:21.790Z,72.90
2018-07-06T08:15:51.518Z,75.00
2018-07-06T08:18:19.920Z,74.50
2018-07-06T08:20:48.242Z,74.40
2018-07-06T08:23:16.755Z,74.50
2018-07-06T08:25:45.111Z,75.00
2018-07-06T08:28:13.456Z,74.60
2018-07-06T08:30:41.894Z,75.00
2018-07-06T08:33:10.251Z,73.70
2018-07-06T08:35:49.907Z,74.10
2018-07-06T08:38:18.265Z,73.20
2018-07-06T08:40:46.599Z,74.00
2018-07-06T08:43:14.938Z,73.10
2018-07-06T08:45:43.303Z,72.80
2018-07-06T08:48:11.671Z,72.90
2018-07-06T08:50:40.019Z,73.40
2018-07-06T08:53:08.386Z,74.20
2018-07-06T08:55:36.739Z,74.80
2018-07-06T08:58:05.087Z,74.50
2018-07-06T09:00:33.434Z,74.40
2018-07-06T09:03:01.759Z,74.00
2018-07-06T09:05:30.156Z,73.90
2018-07-06T09:07:58.495Z,74.20
2018-07-06T09:10:26.883Z,73.90
2018-07-06T09:12:55.242Z,74.10
2018-07-06T09:15:23.565Z,74.10
2018-07-06T09:17:51.899Z,75.20
2018-07-06T09:20:20.243Z,74.10
2018-07-06T09:25:23.628Z,75.20
2018-07-06T09:27:51.642Z,75.10
2018-07-06T09:30:19.994Z,74.70
2018-07-06T09:32:48.320Z,74.60
2018-07-06T09:35:16.683Z,74.40
2018-07-06T09:37:45.071Z,73.90
2018-07-06T09:40:13.506Z,72.70
2018-07-06T09:42:41.766Z,72.30
2018-07-06T09:45:10.123Z,71.50
2018-07-06T09:47:38.451Z,71.80
2018-07-06T09:50:06.863Z,71.30
2018-07-06T09:52:35.186Z,70.40
2018-07-06T09:55:03.565Z,70.10
2018-07-06T09:57:31.919Z,70.30
2018-07-06T10:00:00.266Z,70.70
2018-07-06T10:02:29.393Z,69.70
2018-07-06T10:04:57.791Z,68.80
2018-07-06T10:07:26.141Z,68.60
2018-07-06T10:09:54.648Z,68.70
2018-07-06T10:12:22.866Z,70.10
2018-07-06T10:14:51.210Z,68.50
2018-07-06T10:17:19.616Z,67.50
2018-07-06T10:19:48.123Z,68.30
2018-07-06T10:22:16.459Z,68.50
2018-07-06T10:24:44.935Z,69.60
2018-07-06T10:27:13.347Z,68.70
2018-07-06T10:29:57.687Z,68.20
2018-07-06T10:32:27.159Z,68.00
2018-07-06T10:34:56.202Z,67.80
2018-07-06T10:37:24.955Z,68.60
2018-07-06T10:39:53.746Z,69.00
2018-07-06T10:42:22.007Z,69.40
2018-07-06T10:44:50.450Z,69.70
2018-07-06T10:47:18.808Z,68.30
2018-07-06T10:49:47.191Z,66.30
2018-07-06T10:52:16.175Z,66.20
2018-07-06T10:54:45.148Z,66.30
2018-07-06T10:57:13.594Z,66.90
2018-07-06T10:59:42.100Z,67.00
2018-07-06T11:02:10.518Z,65.70
2018-07-06T11:04:38.942Z,65.10
2018-07-06T11:07:07.298Z,67.60
2018-07-06T11:09:35.674Z,66.70
2018-07-06T11:12:04.031Z,65.50
2018-07-06T11:14:32.367Z,65.50
2018-07-06T11:17:00.862Z,66.10
2018-07-06T11:19:29.191Z,65.60
2018-07-06T11:21:57.550Z,67.30
2018-07-06T11:24:25.898Z,68.30
2018-07-06T11:26:54.861Z,67.80
2018-07-06T11:29:23.211Z,66.30
2018-07-06T11:31:51.568Z,66.30
2018-07-06T11:34:19.938Z,66.70
2018-07-06T11:36:48.299Z,65.80
2018-07-06T11:39:16.637Z,65.90
2018-07-06T11:41:44.990Z,65.90
2018-07-06T11:44:13.351Z,66.10
2018-07-06T11:46:41.830Z,65.70
2018-07-06T11:49:10.179Z,65.00
2018-07-06T11:51:38.539Z,65.50
2018-07-06T11:54:06.899Z,64.50
2018-07-06T11:56:35.275Z,64.50
2018-07-06T11:59:03.639Z,65.10
2018-07-06T12:04:34.675Z,63.80
2018-07-06T12:07:02.997Z,65.10
2018-07-06T12:09:31.354Z,63.80
2018-07-06T12:11:59.701Z,64.40
2018-07-06T12:14:28.126Z,64.80
2018-07-06T12:16:56.517Z,64.20
2018-07-06T12:19:24.862Z,64.30
2018-07-06T12:21:53.875Z,63.90
2018-07-06T12:24:22.685Z,64.70
2018-07-06T12:26:51.494Z,63.90
2018-07-06T12:29:20.849Z,63.10
2018-07-06T12:31:49.829Z,63.60
2018-07-06T12:34:19.008Z,63.90
2018-07-06T12:36:47.446Z,63.40
2018-07-06T12:39:15.870Z,63.00
2018-07-06T12:41:44.219Z,61.90
2018-07-06T12:44:12.829Z,61.10
2018-07-06T12:46:41.649Z,61.70
2018-07-06T12:49:10.026Z,62.50
2018-07-06T12:51:38.413Z,62.20
2018-07-06T12:54:06.801Z,62.40
2018-07-06T12:56:35.193Z,62.20
2018-07-06T12:59:03.569Z,61.70
2018-07-06T13:01:31.998Z,62.10
2018-07-06T13:04:00.346Z,61.50
2018-07-06T13:06:28.709Z,61.50
2018-07-06T13:08:57.083Z,62.50
2018-07-06T13:11:25.450Z,61.60
2018-07-06T13:13:53.818Z,62.50
2018-07-06T13:16:22.821Z,61.60
2018-07-06T13:18:51.172Z,61.70
2018-07-06T13:21:19.529Z,61.40
2018-07-06T13:23:48.000Z,61.80
2018-07-06T13:28:44.511Z,61.00
2018-07-06T13:31:12.938Z,61.00
2018-07-06T13:33:41.340Z,61.20
2018-07-06T13:36:09.670Z,61.70
2018-07-06T13:38:38.037Z,61.30
2018-07-06T13:41:06.725Z,60.60
2018-07-06T13:43:35.087Z,59.90
2018-07-06T13:46:03.450Z,60.80
2018-07-06T13:48:31.986Z,61.60
2018-07-06T13:51:00.312Z,59.50
2018-07-06T13:53:28.906Z,59.40
2018-07-06T13:55:57.240Z,60.00
2018-07-06T13:58:25.673Z,59.60
2018-07-06T14:00:54.478Z,60.30
2018-07-06T14:03:22.853Z,60.20
2018-07-06T14:05:51.358Z,59.60
2018-07-06T14:08:19.621Z,59.40
2018-07-06T14:10:47.981Z,58.50
2018-07-06T14:13:16.341Z,58.80
2018-07-06T14:15:44.678Z,59.00
2018-07-06T14:18:13.089Z,58.60
2018-07-06T14:20:41.493Z,58.50
2018-07-06T14:23:09.893Z,59.60
2018-07-06T14:25:38.709Z,59.40
2018-07-06T14:28:07.947Z,59.50
2018-07-06T14:30:36.289Z,59.80
2018-07-06T14:33:04.647Z,59.50
2018-07-06T14:35:33.022Z,60.20
2018-07-06T14:38:01.516Z,60.50
2018-07-06T14:40:29.874Z,60.60
2018-07-06T14:42:58.349Z,60.60
2018-07-06T14:45:26.701Z,59.60
2018-07-06T14:47:55.097Z,60.30
2018-07-06T14:50:23.513Z,60.10
2018-07-06T14:52:51.999Z,60.40
2018-07-06T14:55:20.765Z,60.80
2018-07-06T14:57:49.154Z,60.40
2018-07-06T15:00:17.609Z,60.90
2018-07-06T15:02:46.006Z,61.10
2018-07-06T15:05:14.402Z,61.20
2018-07-06T15:07:42.761Z,61.50
2018-07-06T15:10:11.590Z,61.00
2018-07-06T15:12:40.030Z,60.80
2018-07-06T15:15:08.361Z,60.90
2018-07-06T15:17:37.115Z,60.70
2018-07-06T15:20:05.517Z,61.10
2018-07-06T15:22:33.985Z,60.50
2018-07-06T15:27:30.453Z,60.50
2018-07-06T15:29:58.821Z,61.00
2018-07-06T15:32:27.333Z,60.20
2018-07-06T15:34:55.677Z,60.00
2018-07-06T15:37:24.077Z,60.00
2018-07-06T15:39:52.431Z,60.10
2018-07-06T15:42:20.797Z,60.30
2018-07-06T15:44:49.153Z,60.40
2018-07-06T15:47:17.561Z,61.20
2018-07-06T15:49:45.917Z,60.70
2018-07-06T15:52:14.313Z,60.40
2018-07-06T15:54:42.720Z,60.50
2018-07-06T15:57:11.082Z,60.60
2018-07-06T15:59:39.582Z,60.70
2018-07-06T16:02:07.961Z,60.60
2018-07-06T16:04:36.483Z,60.00
2018-07-06T16:07:04.893Z,60.40
2018-07-06T16:09:33.277Z,60.10
2018-07-06T16:12:01.613Z,60.20
2018-07-06T16:14:30.073Z,60.60
2018-07-06T16:16:58.615Z,60.60
2018-07-06T16:19:27.114Z,59.80
2018-07-06T16:21:55.441Z,60.00
2018-07-06T16:24:23.877Z,60.60
2018-07-06T16:26:52.205Z,59.80
2018-07-06T16:29:20.820Z,60.30
2018-07-06T16:31:49.174Z,59.90
2018-07-06T16:34:17.585Z,60.30
2018-07-06T16:36:45.961Z,60.10
2018-07-06T16:39:14.465Z,59.60
2018-07-06T16:41:42.828Z,59.60
2018-07-06T16:44:11.177Z,59.70
2018-07-06T16:46:39.497Z,60.10
2018-07-06T16:49:07.870Z,59.60
2018-07-06T16:51:36.226Z,60.00
2018-07-06T16:54:04.585Z,59.40
2018-07-06T16:56:32.994Z,59.20
2018-07-06T16:59:01.438Z,58.10
2018-07-06T17:01:29.766Z,58.10
2018-07-06T17:03:57.778Z,58.10
2018-07-06T17:06:26.118Z,58.40
2018-07-06T17:08:54.561Z,58.10
2018-07-06T17:11:22.926Z,58.10
2018-07-06T17:13:51.320Z,58.50
2018-07-06T17:16:19.614Z,58.60
2018-07-06T17:18:48.208Z,59.00
2018-07-06T17:21:16.542Z,59.00
2018-07-06T17:23:44.885Z,58.60
2018-07-06T17:26:20.051Z,58.90
2018-07-06T17:28:48.393Z,59.30
2018-07-06T17:31:16.813Z,59.10
2018-07-06T17:33:45.171Z,59.00
2018-07-06T17:36:13.515Z,59.00
2018-07-06T17:38:41.890Z,58.80
2018-07-06T17:41:10.286Z,59.30
2018-07-06T17:43:38.646Z,59.40
2018-07-06T17:46:06.989Z,58.90
2018-07-06T17:48:35.533Z,59.40
2018-07-06T17:51:03.904Z,59.10
2018-07-06T17:53:32.254Z,60.00
2018-07-06T17:56:00.622Z,59.60
2018-07-06T17:58:28.981Z,59.80
2018-07-06T18:00:57.329Z,59.60
2018-07-06T18:03:25.693Z,59.70
2018-07-06T18:05:54.056Z,60.00
2018-07-06T18:08:22.385Z,59.90
2018-07-06T18:10:50.766Z,60.30
2018-07-06T18:13:19.180Z,60.00
2018-07-06T18:15:47.571Z,60.00
2018-07-06T18:18:15.950Z,59.90
2018-07-06T18:20:44.358Z,60.30
2018-07-06T18:23:12.816Z,60.50
2018-07-06T18:25:41.155Z,60.50
2018-07-06T18:30:37.549Z,59.70
2018-07-06T18:33:05.930Z,60.20
2018-07-06T18:35:34.282Z,60.30
2018-07-06T18:38:02.781Z,60.30
2018-07-06T18:40:31.771Z,60.20
2018-07-06T18:43:00.126Z,60.60
2018-07-06T18:45:28.544Z,60.60
2018-07-06T18:47:56.945Z,60.90
2018-07-06T18:50:25.321Z,60.40
2018-07-06T18:52:53.709Z,60.70
2018-07-06T18:55:22.072Z,60.80
2018-07-06T18:57:50.502Z,61.20
2018-07-06T19:00:18.902Z,61.40
2018-07-06T19:02:47.286Z,61.80
2018-07-06T19:05:15.804Z,61.40
2018-07-06T19:07:44.166Z,61.70
2018-07-06T19:10:12.521Z,61.90
2018-07-06T19:12:40.986Z,61.60
2018-07-06T19:15:09.352Z,61.50
2018-07-06T19:17:37.677Z,61.70
2018-07-06T19:20:06.102Z,62.40
2018-07-06T19:22:34.470Z,62.90
2018-07-06T19:25:02.906Z,63.30
2018-07-06T19:27:31.396Z,63.20
2018-07-06T19:30:00.452Z,63.50
2018-07-06T19:32:28.796Z,63.70
2018-07-06T19:34:57.137Z,64.00
2018-07-06T19:37:25.498Z,64.70
2018-07-06T19:39:53.854Z,64.90
2018-07-06T19:42:22.217Z,65.50
2018-07-06T19:44:50.633Z,66.30
2018-07-06T19:47:18.961Z,66.30
2018-07-06T19:49:47.400Z,66.90
2018-07-06T19:52:15.730Z,67.30
2018-07-06T19:54:44.106Z,67.20
2018-07-06T19:57:12.513Z,67.40
2018-07-06T19:59:40.901Z,67.50
2018-07-06T20:02:09.342Z,68.20
2018-07-06T20:04:37.732Z,68.30
2018-07-06T20:07:06.465Z,68.50
2018-07-06T20:09:34.802Z,69.00
2018-07-06T20:12:03.181Z,69.20
2018-07-06T20:14:31.539Z,69.60
2018-07-06T20:17:00.085Z,69.70
2018-07-06T20:19:28.474Z,69.70
2018-07-06T20:21:56.814Z,70.20
2018-07-06T20:24:25.153Z,70.60
2018-07-06T20:26:53.525Z,70.60
2018-07-06T20:29:21.880Z,70.80
2018-07-06T20:31:50.286Z,71.00
2018-07-06T20:34:18.873Z,71.30
2018-07-06T20:36:47.226Z,71.90
2018-07-06T20:39:15.577Z,72.40
2018-07-06T20:41:43.922Z,72.20
2018-07-06T20:44:12.250Z,71.90
2018-07-06T20:46:40.605Z,72.20
2018-07-06T20:49:09.009Z,72.10
2018-07-06T20:51:37.429Z,72.60
2018-07-06T20:54:05.829Z,72.50
2018-07-06T20:56:34.236Z,72.80
2018-07-06T20:59:09.182Z,73.00
2018-07-06T21:01:37.562Z,72.60
2018-07-06T21:04:06.109Z,72.80
2018-07-06T21:06:34.477Z,72.30
2018-07-06T21:09:03.881Z,72.50
2018-07-06T21:11:32.247Z,73.00
2018-07-06T21:14:00.621Z,72.70
2018-07-06T21:16:28.997Z,72.60
2018-07-06T21:18:57.359Z,72.70
2018-07-06T21:21:25.736Z,72.80
2018-07-06T21:23:54.109Z,73.10
2018-07-06T21:26:22.497Z,73.40
2018-07-06T21:28:50.849Z,73.10
2018-07-06T21:31:19.217Z,73.00
2018-07-06T21:33:47.561Z,73.10
2018-07-06T21:36:16.133Z,72.90
2018-07-06T21:38:44.498Z,72.90
2018-07-06T21:41:12.890Z,73.00
2018-07-06T21:43:41.230Z,72.90
2018-07-06T21:46:09.656Z,72.90
2018-07-06T21:48:40.085Z,73.00
2018-07-06T21:51:08.486Z,72.80
2018-07-06T21:53:36.884Z,72.90
2018-07-06T21:56:05.298Z,72.90
2018-07-06T21:58:33.713Z,73.20
2018-07-06T22:01:02.171Z,73.20
2018-07-06T22:03:30.626Z,73.10
2018-07-06T22:05:59.157Z,73.20
2018-07-06T22:08:27.534Z,73.10
2018-07-06T22:10:55.885Z,73.20
2018-07-06T22:13:24.269Z,73.20
2018-07-06T22:15:52.625Z,73.40
2018-07-06T22:18:20.994Z,73.50
2018-07-06T22:20:49.752Z,73.50
2018-07-06T22:23:18.281Z,73.30
2018-07-06T22:25:46.741Z,73.20
2018-07-06T22:28:15.134Z,73.20
2018-07-06T22:30:43.515Z,73.30
2018-07-06T22:33:11.900Z,73.30
2018-07-06T22:35:40.332Z,73.70
2018-07-06T22:38:08.709Z,73.20
2018-07-06T22:40:37.057Z,72.70
2018-07-06T22:43:05.554Z,73.00
2018-07-06T22:45:33.932Z,73.30
2018-07-06T22:48:02.301Z,73.20
2018-07-06T22:50:30.689Z,73.00
2018-07-06T22:52:59.082Z,73.00
2018-07-06T22:55:27.454Z,73.20
2018-07-06T22:57:55.844Z,71.90
2018-07-06T23:00:24.193Z,72.80
2018-07-06T23:02:53.645Z,72.70
2018-07-06T23:05:22.028Z,72.60
2018-07-06T23:07:50.422Z,72.20
2018-07-06T23:10:18.813Z,72.10
2018-07-06T23:12:47.202Z,71.60
2018-07-06T23:15:15.596Z,71.60
2018-07-06T23:17:43.977Z,72.00
2018-07-06T23:20:12.359Z,71.90
2018-07-06T23:23:07.168Z,71.70
2018-07-06T23:25:39.838Z,72.10
2018-07-06T23:28:08.281Z,72.30
2018-07-06T23:30:37.250Z,72.20
2018-07-06T23:33:06.422Z,72.20
2018-07-06T23:35:34.977Z,72.50
2018-07-06T23:38:03.416Z,72.30
2018-07-06T23:40:31.810Z,72.50
2018-07-06T23:43:00.412Z,72.40
2018-07-06T23:45:28.802Z,72.70
2018-07-06T23:47:57.194Z,72.70
2018-07-06T23:50:25.593Z,72.80
2018-07-06T23:52:54.178Z,73.00
2018-07-06T23:55:22.581Z,73.90
2018-07-06T23:57:51.012Z,72.60
